Leopoldina, Brazil
Current Conditions -  °F | °C
As of 8:00 PM on Thursday 30 Oct 2014 (Local Time) from SBBQ Reporting Station
Broken Clouds Broken Clouds  
Wind Chill: 68°   Ceiling: 10000
Heat Index: 68°   Visibility: 6mi
Dew Point: 61°   Wind: 5mph
Humidity: 78%   Direction: 130°SE
Pressure: 30.09"   Gusts: NA
Location:  21.53°S, 42.64°W
Report Text: SBBQ 302200Z 13004KT 9999 FEW045 FEW050TCU BKN100 20/16 Q1019
Loading
Personal Weather Stations






























Interactive Weather Map
Tropical Storm Tracking
New forecast layout! Learn more

10-Day Weather Forecast

Advertisements
Track Severe Weather on mobile